Time;durP1;ratioP1;P1;durP2;ratioP2;P2;SDS_P1;SDS_P2;PMS_P1;PMS_P2;Temp;Humidity;BMP_temperature;BMP_pressure;BME280_temperature;BME280_humidity;BME280_pressure;Samples;Min_cycle;Max_cycle;Signal;HPM_P1;HPM_P2
2023/03/27 00:01:33;;;;;;;6.05;1.90;;;;;;;3.51;82.52;101869.63;6098775;19;20090;-77
2023/03/27 00:03:41;;;;;;;3.20;1.88;;;;;;;3.30;81.49;101851.31;6109823;19;20070;-76
2023/03/27 00:05:46;;;;;;;5.47;1.92;;;;;;;3.37;81.38;101842.72;6119734;19;20085;-77
2023/03/27 00:07:54;;;;;;;5.47;1.77;;;;;;;3.27;82.77;101843.50;6116389;19;20430;-77
2023/03/27 00:10:00;;;;;;;4.82;1.70;;;;;;;3.26;83.68;101844.34;6121632;19;20467;-77
2023/03/27 00:12:05;;;;;;;2.88;1.55;;;;;;;3.20;84.58;101850.38;6123618;19;20018;-77
2023/03/27 00:14:11;;;;;;;4.28;1.73;;;;;;;3.21;84.13;101849.53;6116247;19;20006;-76
2023/03/27 00:16:18;;;;;;;6.80;1.80;;;;;;;3.19;84.74;101853.00;6121126;19;20018;-77
2023/03/27 00:18:23;;;;;;;2.95;1.48;;;;;;;3.19;84.68;101847.81;6122262;19;20514;-77
2023/03/27 00:20:28;;;;;;;3.58;1.80;;;;;;;3.19;84.53;101861.66;6121116;19;20138;-76
2023/03/27 00:22:34;;;;;;;4.97;2.20;;;;;;;3.15;84.32;101864.22;6114583;19;20011;-75
2023/03/27 00:24:39;;;;;;;3.42;1.60;;;;;;;3.16;84.16;101868.53;6110805;19;20032;-76
2023/03/27 00:26:50;;;;;;;2.58;1.48;;;;;;;3.15;85.37;101880.66;6107365;19;20010;-75
2023/03/27 00:28:55;;;;;;;6.47;1.90;;;;;;;3.09;84.90;101875.44;6104302;19;20015;-78
2023/03/27 00:31:00;;;;;;;4.40;1.50;;;;;;;3.05;84.76;101882.34;6105760;19;20661;-78
2023/03/27 00:33:10;;;;;;;2.72;1.58;;;;;;;3.03;85.74;101889.25;6102731;19;20011;-75
2023/03/27 00:35:16;;;;;;;3.40;1.58;;;;;;;2.99;84.77;101890.06;6102879;19;20028;-75
2023/03/27 00:37:21;;;;;;;6.40;1.90;;;;;;;2.93;85.61;101892.63;6099838;19;20025;-75
2023/03/27 00:39:27;;;;;;;6.80;2.03;;;;;;;2.92;86.43;101898.66;6103189;19;20043;-75
2023/03/27 00:41:32;;;;;;;5.03;2.03;;;;;;;2.91;87.11;101902.13;6105059;19;20017;-75
2023/03/27 00:43:42;;;;;;;2.80;1.83;;;;;;;2.90;86.58;101894.31;6104357;19;20034;-75
2023/03/27 00:45:49;;;;;;;5.38;1.90;;;;;;;2.87;86.08;101892.59;6101663;19;20018;-74
2023/03/27 00:47:58;;;;;;;7.18;2.65;;;;;;;2.83;85.54;101896.00;6104459;19;20344;-77
2023/03/27 00:50:10;;;;;;;3.78;2.08;;;;;;;2.79;86.66;101902.91;6103092;19;20006;-76
2023/03/27 00:52:15;;;;;;;5.32;1.80;;;;;;;2.77;87.25;101906.34;6102303;19;20007;-76
2023/03/27 00:54:28;;;;;;;5.07;1.90;;;;;;;2.72;87.19;101903.69;6103608;19;20585;-75
2023/03/27 00:56:37;;;;;;;;;;;;;;;2.73;85.79;101912.34;6104477;19;20035;-76
2023/03/27 00:58:46;;;;;;;6.82;2.42;;;;;;;2.74;87.65;101917.56;6102888;19;19919;-77
2023/03/27 01:00:54;;;;;;;3.88;1.70;;;;;;;2.76;88.56;101912.38;6098636;19;20133;-75
2023/03/27 01:03:00;;;;;;;5.13;2.03;;;;;;;2.74;87.25;101921.84;6089443;19;20018;-77
2023/03/27 01:05:09;;;;;;;7.00;2.55;;;;;;;2.72;88.00;101919.25;6101254;19;20109;-75
2023/03/27 01:07:14;;;;;;;4.00;1.48;;;;;;;2.75;87.74;101918.41;6100889;19;20014;-75
2023/03/27 01:09:20;;;;;;;3.75;1.90;;;;;;;2.83;87.88;101924.56;6098144;19;20771;-76
2023/03/27 01:11:38;;;;;;;6.22;2.47;;;;;;;2.90;87.55;101933.25;6104867;19;20678;-76
2023/03/27 01:13:56;;;;;;;4.90;2.10;;;;;;;2.94;87.89;101928.09;6099793;19;20728;-76
2023/03/27 01:16:07;;;;;;;6.53;2.03;;;;;;;3.01;88.05;101932.50;6078532;19;20703;-76
2023/03/27 01:18:25;;;;;;;5.93;2.13;;;;;;;3.12;87.99;101939.50;6103268;19;20043;-77
2023/03/27 01:20:58;;;;;;;10.82;2.22;;;;;;;3.25;87.20;101941.34;6107776;19;20241;-77
2023/03/27 01:23:36;;;;;;;6.38;1.90;;;;;;;3.26;86.21;101928.34;6108818;19;20018;-78
2023/03/27 01:26:20;;;;;;;6.30;2.35;;;;;;;3.21;86.46;101919.69;6099546;19;20078;-75
2023/03/27 01:28:53;;;;;;;8.73;2.15;;;;;;;3.14;86.09;101922.22;6102037;19;20019;-75
2023/03/27 01:31:05;;;;;;;5.15;1.80;;;;;;;3.13;86.54;101936.91;6100596;19;20018;-74
2023/03/27 01:33:54;;;;;;;6.13;1.92;;;;;;;3.12;86.86;101940.38;6101910;19;20021;-73
2023/03/27 01:36:44;;;;;;;8.32;2.10;;;;;;;3.13;87.93;101938.63;6094041;19;20014;-73
2023/03/27 01:39:31;;;;;;;7.55;2.20;;;;;;;3.17;88.49;101948.22;6100605;19;20034;-73
2023/03/27 01:41:44;;;;;;;7.97;2.30;;;;;;;3.19;88.04;101944.75;6097462;19;21147;-73
2023/03/27 01:43:54;;;;;;;6.40;1.92;;;;;;;3.22;87.57;101956.91;6078724;19;20022;-73
2023/03/27 01:46:08;;;;;;;7.10;2.38;;;;;;;3.34;86.54;101966.50;6098685;19;20010;-73
2023/03/27 01:48:18;;;;;;;6.35;1.90;;;;;;;3.40;83.19;101959.63;6101185;19;20109;-73
2023/03/27 01:50:31;;;;;;;2.95;1.50;;;;;;;3.38;81.45;101969.16;6100057;19;20030;-73
2023/03/27 01:52:40;;;;;;;4.35;1.70;;;;;;;3.32;81.56;101974.31;6099839;19;20003;-73
2023/03/27 01:54:54;;;;;;;4.28;1.83;;;;;;;3.26;80.85;101967.31;6101375;19;20007;-73
2023/03/27 01:57:09;;;;;;;6.60;1.58;;;;;;;3.24;81.25;101968.19;6100230;19;20663;-73
2023/03/27 01:59:17;;;;;;;3.38;1.42;;;;;;;3.23;80.25;101962.09;6100642;19;20021;-73
2023/03/27 02:01:28;;;;;;;6.70;1.50;;;;;;;3.24;80.24;101965.59;6096297;19;20047;-73
2023/03/27 02:03:40;;;;;;;2.53;1.40;;;;;;;3.24;79.61;101957.78;6098919;19;20013;-73
2023/03/27 02:05:50;;;;;;;2.87;1.60;;;;;;;3.17;80.91;101971.59;6104527;19;20019;-74
2023/03/27 02:08:01;;;;;;;3.65;1.35;;;;;;;3.15;81.38;101976.75;6099184;19;20247;-73
2023/03/27 02:10:13;;;;;;;8.63;2.55;;;;;;;3.16;80.17;101982.81;6099819;19;20307;-72
2023/03/27 02:12:27;;;;;;;3.53;1.70;;;;;;;3.16;80.66;101990.59;6099973;19;20014;-74
2023/03/27 02:14:38;;;;;;;1.88;1.60;;;;;;;3.16;81.35;101995.78;6098946;19;20022;-73
2023/03/27 02:16:49;;;;;;;3.45;1.45;;;;;;;3.17;81.21;102001.00;6097595;19;20007;-73
2023/03/27 02:18:59;;;;;;;8.07;2.30;;;;;;;3.29;80.96;102005.44;6098306;19;20010;-73
2023/03/27 02:21:05;;;;;;;5.38;1.80;;;;;;;3.38;80.82;102015.06;6099753;19;20017;-73
2023/03/27 02:23:10;;;;;;;4.72;1.95;;;;;;;3.31;81.65;102014.13;6098900;19;20017;-74
2023/03/27 02:25:34;;;;;;;4.53;1.55;;;;;;;3.06;79.53;102024.28;6100004;19;20011;-74
2023/03/27 02:27:46;;;;;;;3.13;1.25;;;;;;;2.94;82.72;102029.34;6094150;19;20022;-73
2023/03/27 02:30:01;;;;;;;2.47;1.50;;;;;;;2.79;84.19;102024.00;6097414;19;20048;-73
2023/03/27 02:32:18;;;;;;;3.47;1.52;;;;;;;2.75;84.43;102022.25;6072855;19;20090;-73
2023/03/27 02:34:45;;;;;;;3.40;1.25;;;;;;;2.72;84.61;102007.50;6098369;19;20583;-74
2023/03/27 02:37:00;;;;;;;1.63;1.40;;;;;;;2.64;84.58;102010.03;6096538;19;20014;-73
2023/03/27 02:39:14;;;;;;;2.95;1.40;;;;;;;2.65;84.70;102003.09;6097871;19;20917;-72
2023/03/27 02:41:23;;;;;;;3.38;1.30;;;;;;;2.67;84.20;102008.31;6094381;19;20621;-73
2023/03/27 02:43:35;;;;;;;1.67;1.00;;;;;;;2.65;84.31;102008.28;6097465;19;20538;-73
2023/03/27 02:45:52;;;;;;;2.78;1.25;;;;;;;2.62;84.96;102009.13;6098605;19;20011;-72
2023/03/27 02:48:01;;;;;;;4.32;1.33;;;;;;;2.56;86.01;102010.78;6096626;19;20039;-73
2023/03/27 02:50:11;;;;;;;2.63;1.08;;;;;;;2.50;86.15;102018.50;6097971;19;20020;-74
2023/03/27 02:52:21;;;;;;;4.10;1.63;;;;;;;2.44;86.31;102019.28;6098014;19;20534;-74
2023/03/27 02:54:31;;;;;;;3.42;1.48;;;;;;;2.40;86.34;102023.59;6100484;19;20094;-73
2023/03/27 02:56:42;;;;;;;1.58;1.30;;;;;;;2.36;86.38;102018.34;6097209;19;20010;-72
2023/03/27 02:58:56;;;;;;;1.25;1.15;;;;;;;2.29;86.68;102026.88;6099572;19;20671;-72
2023/03/27 03:01:02;;;;;;;1.10;1.10;;;;;;;2.17;87.40;102031.06;6098305;19;20319;-72
2023/03/27 03:03:12;;;;;;;2.55;1.10;;;;;;;2.12;87.97;102019.75;6102003;19;20320;-72
2023/03/27 03:05:22;;;;;;;3.20;1.23;;;;;;;2.08;87.12;102025.78;6099767;19;20872;-73
2023/03/27 03:07:27;;;;;;;1.70;1.17;;;;;;;2.08;87.18;102035.25;6102213;19;20048;-71
2023/03/27 03:09:33;;;;;;;3.13;1.30;;;;;;;2.04;87.83;102036.94;6104325;19;20027;-72
2023/03/27 03:11:49;;;;;;;2.38;1.30;;;;;;;2.01;87.91;102044.69;6102290;19;20011;-72
2023/03/27 03:13:56;;;;;;;2.42;1.52;;;;;;;2.00;88.28;102042.06;6103562;19;20638;-72
2023/03/27 03:16:01;;;;;;;2.58;1.40;;;;;;;2.04;88.30;102057.69;6104856;19;20019;-72
2023/03/27 03:18:08;;;;;;;2.83;1.50;;;;;;;2.25;87.30;102077.84;6102022;19;20023;-73
2023/03/27 03:20:15;;;;;;;5.75;1.50;;;;;;;2.36;87.33;102081.44;6102581;19;20066;-73
2023/03/27 03:22:20;;;;;;;3.53;1.50;;;;;;;2.38;88.78;102082.34;6105819;19;20011;-74
2023/03/27 03:24:26;;;;;;;7.32;2.78;;;;;;;2.46;88.67;102095.44;6104902;19;20020;-75
2023/03/27 03:26:31;;;;;;;5.85;2.20;;;;;;;2.60;87.02;102095.59;6100896;19;20014;-74
2023/03/27 03:28:36;;;;;;;7.70;2.15;;;;;;;2.65;86.94;102104.31;6101422;19;20017;-74
2023/03/27 03:30:44;;;;;;;5.53;1.77;;;;;;;2.67;86.80;102096.56;6096951;19;20010;-75
2023/03/27 03:32:49;;;;;;;6.60;1.85;;;;;;;2.69;86.34;102089.66;6099801;19;20010;-73
2023/03/27 03:34:55;;;;;;;6.70;1.83;;;;;;;2.74;87.11;102098.34;6098637;19;20035;-74
2023/03/27 03:37:01;;;;;;;5.10;1.60;;;;;;;2.71;87.11;102090.53;6094347;19;20598;-74
2023/03/27 03:39:06;;;;;;;3.25;1.42;;;;;;;2.71;86.65;102108.69;6095243;19;20033;-74
2023/03/27 03:41:11;;;;;;;5.35;1.73;;;;;;;2.72;87.26;102102.69;6097602;19;20002;-74
2023/03/27 03:43:16;;;;;;;3.40;1.45;;;;;;;2.70;87.92;102107.84;6097987;19;20056;-74
2023/03/27 03:45:21;;;;;;;11.10;2.58;;;;;;;2.79;87.27;102101.88;6073662;19;20014;-75
2023/03/27 03:47:31;;;;;;;5.00;1.80;;;;;;;2.69;87.17;102103.50;6093970;19;20011;-75
2023/03/27 03:49:36;;;;;;;4.70;1.55;;;;;;;2.63;87.37;102117.28;6097552;19;20027;-75
2023/03/27 03:51:41;;;;;;;3.75;1.60;;;;;;;2.55;87.62;102112.81;6095942;19;20023;-75
2023/03/27 03:53:46;;;;;;;4.50;1.60;;;;;;;2.52;87.94;102123.16;6098044;19;20010;-74
2023/03/27 03:55:54;;;;;;;3.65;1.58;;;;;;;2.45;88.72;102117.03;6096950;19;20014;-74
2023/03/27 03:57:59;;;;;;;2.20;1.30;;;;;;;2.44;88.69;102117.88;6097030;19;20021;-74
2023/03/27 04:00:10;;;;;;;2.58;1.60;;;;;;;2.39;89.74;102119.53;6098648;19;20017;-73
2023/03/27 04:02:26;;;;;;;5.43;1.50;;;;;;;2.35;90.42;102118.63;6096048;19;20015;-73
2023/03/27 04:04:35;;;;;;;3.72;2.13;;;;;;;2.28;90.60;102116.78;6098581;19;20582;-73
2023/03/27 04:06:42;;;;;;;2.85;1.67;;;;;;;2.26;89.68;102125.41;6097392;19;20043;-73
2023/03/27 04:08:47;;;;;;;3.83;1.85;;;;;;;2.19;89.50;102124.47;6096219;19;20613;-73
2023/03/27 04:10:52;;;;;;;4.20;1.60;;;;;;;2.16;90.39;102120.09;6095743;19;20011;-74
2023/03/27 04:12:58;;;;;;;4.05;1.90;;;;;;;2.13;91.52;102126.94;6094283;19;20010;-73
2023/03/27 04:15:03;;;;;;;3.63;1.92;;;;;;;2.07;91.25;102129.44;6095514;19;20009;-73
2023/03/27 04:17:08;;;;;;;3.00;1.65;;;;;;;2.03;91.49;102127.63;6095405;19;20595;-73
2023/03/27 04:19:17;;;;;;;4.80;1.85;;;;;;;1.97;91.34;102131.00;6097522;19;20015;-73
2023/03/27 04:21:25;;;;;;;7.15;2.30;;;;;;;1.95;90.54;102131.00;6091699;19;20227;-74
2023/03/27 04:23:32;;;;;;;6.40;2.97;;;;;;;1.93;90.64;102140.47;6097423;19;20664;-74
2023/03/27 04:25:37;;;;;;;6.55;2.25;;;;;;;1.92;90.40;102140.44;6095981;19;20066;-74
2023/03/27 04:27:43;;;;;;;5.95;2.42;;;;;;;1.88;91.58;102152.50;6096759;19;20024;-74
2023/03/27 04:29:48;;;;;;;3.28;2.03;;;;;;;1.86;90.93;102143.81;6094986;19;20251;-74
2023/03/27 04:31:54;;;;;;;7.78;2.75;;;;;;;1.85;91.33;102155.03;6096949;19;20018;-75
2023/03/27 04:33:58;;;;;;;7.32;2.50;;;;;;;1.86;91.84;102155.91;6093901;19;20025;-74
2023/03/27 04:36:03;;;;;;;5.32;2.05;;;;;;;1.92;93.05;102156.88;6095268;19;20015;-74
2023/03/27 04:38:14;;;;;;;11.02;3.53;;;;;;;1.95;92.23;102163.84;6096045;19;20011;-74
2023/03/27 04:40:19;;;;;;;6.95;2.97;;;;;;;1.95;92.67;102166.44;6095956;19;20014;-75
2023/03/27 04:42:24;;;;;;;8.35;3.28;;;;;;;1.98;93.52;102163.88;6094943;19;20006;-75
2023/03/27 04:44:29;;;;;;;7.38;3.10;;;;;;;2.00;92.46;102169.09;6095242;19;20683;-75
2023/03/27 04:46:37;;;;;;;8.25;2.25;;;;;;;2.01;92.03;102187.25;6095706;19;20011;-75
2023/03/27 04:48:41;;;;;;;7.72;2.60;;;;;;;2.06;92.30;102198.59;6096804;19;20006;-77
2023/03/27 04:50:48;;;;;;;6.03;2.00;;;;;;;2.39;89.32;102194.75;6099251;19;20011;-78
2023/03/27 04:52:57;;;;;;;9.23;2.40;;;;;;;2.52;87.90;102203.59;6098940;19;20006;-76
2023/03/27 04:55:06;;;;;;;11.32;2.70;;;;;;;2.60;87.25;102214.97;6101013;19;20216;-75
2023/03/27 04:57:14;;;;;;;9.98;2.25;;;;;;;2.66;87.12;102222.88;6102694;19;20015;-75
2023/03/27 04:59:20;;;;;;;8.23;1.95;;;;;;;2.58;87.00;102216.66;6097739;19;20397;-78
2023/03/27 05:01:24;;;;;;;7.75;2.35;;;;;;;2.58;87.27;102217.56;6102964;19;20039;-76
2023/03/27 05:03:33;;;;;;;5.07;2.60;;;;;;;2.57;87.58;102199.34;6103423;19;20243;-75
2023/03/27 05:05:38;;;;;;;6.72;2.15;;;;;;;2.49;87.18;102204.44;6104752;19;20027;-74
2023/03/27 05:07:47;;;;;;;8.57;2.05;;;;;;;2.36;86.40;102205.09;6101333;19;20011;-74
2023/03/27 05:09:52;;;;;;;6.32;1.90;;;;;;;2.28;86.59;102199.78;6100638;19;20502;-73
2023/03/27 05:11:59;;;;;;;3.83;2.13;;;;;;;2.24;86.38;102195.41;6101585;19;20014;-73
2023/03/27 05:14:04;;;;;;;11.55;2.58;;;;;;;2.22;86.62;102201.44;6097273;19;20011;-73
2023/03/27 05:16:13;;;;;;;5.75;1.83;;;;;;;2.19;87.13;102200.53;6099895;19;20035;-73
2023/03/27 05:18:18;;;;;;;6.03;2.13;;;;;;;2.19;87.17;102205.72;6099775;19;20014;-73
2023/03/27 05:20:23;;;;;;;6.40;2.10;;;;;;;2.12;87.60;102200.41;6101183;19;20026;-74
2023/03/27 05:22:28;;;;;;;7.65;2.20;;;;;;;2.03;87.18;102206.31;6098923;19;20637;-73
2023/03/27 05:24:33;;;;;;;6.22;2.13;;;;;;;2.02;87.36;102209.75;6100015;19;20021;-74
2023/03/27 05:26:40;;;;;;;8.95;2.90;;;;;;;1.99;87.43;102209.69;6098698;19;20098;-74
2023/03/27 05:28:50;;;;;;;7.10;2.53;;;;;;;1.93;87.21;102207.00;6098522;19;20031;-74
2023/03/27 05:30:55;;;;;;;6.03;2.20;;;;;;;1.91;87.20;102208.69;6099012;19;20622;-74
2023/03/27 05:33:00;;;;;;;3.65;1.90;;;;;;;1.85;87.36;102213.78;6098749;19;20003;-74
2023/03/27 05:35:06;;;;;;;10.75;2.50;;;;;;;1.83;87.31;102218.94;6100361;19;20006;-74
2023/03/27 05:37:11;;;;;;;4.75;1.92;;;;;;;1.83;86.74;102213.75;6099503;19;20015;-74
2023/03/27 05:39:16;;;;;;;4.18;2.10;;;;;;;1.81;87.33;102217.16;6096419;19;20007;-74
2023/03/27 05:41:21;;;;;;;11.35;3.10;;;;;;;1.77;87.65;102218.81;6096604;19;20556;-74
2023/03/27 05:43:28;;;;;;;9.18;2.40;;;;;;;1.80;87.66;102230.97;6099913;19;20032;-74
2023/03/27 05:45:36;;;;;;;9.38;3.10;;;;;;;1.80;87.71;102233.56;6100959;19;20010;-74
2023/03/27 05:47:48;;;;;;;6.68;2.08;;;;;;;1.84;87.69;102236.22;6095822;19;20008;-75
2023/03/27 05:49:55;;;;;;;6.55;2.65;;;;;;;1.85;88.31;102232.78;6101421;19;20750;-75
2023/03/27 05:52:00;;;;;;;6.10;2.17;;;;;;;1.88;89.41;102234.56;6100226;19;20234;-75
2023/03/27 05:54:05;;;;;;;7.47;2.30;;;;;;;1.90;88.72;102236.34;6099354;19;20684;-76
2023/03/27 05:56:11;;;;;;;7.53;2.17;;;;;;;1.95;88.06;102237.28;6101256;19;20029;-76
2023/03/27 05:58:16;;;;;;;4.38;2.03;;;;;;;2.01;89.54;102238.25;6101793;19;20534;-76
2023/03/27 06:00:25;;;;;;;4.80;2.35;;;;;;;2.04;89.52;102238.28;6105139;19;20486;-76
2023/03/27 06:02:33;;;;;;;9.85;2.40;;;;;;;2.09;88.62;102245.31;6111733;19;20006;-76
2023/03/27 06:04:41;;;;;;;7.32;3.00;;;;;;;2.11;88.54;102256.59;6116135;19;20619;-76
2023/03/27 06:06:46;;;;;;;6.93;2.80;;;;;;;2.11;88.91;102245.34;6118272;19;20051;-76
2023/03/27 06:08:52;;;;;;;9.00;3.35;;;;;;;2.13;89.79;102249.72;6117939;19;20042;-76
2023/03/27 06:10:59;;;;;;;5.85;2.78;;;;;;;2.12;88.84;102249.66;6119692;19;20010;-76
2023/03/27 06:13:07;;;;;;;9.20;3.45;;;;;;;2.10;88.96;102254.81;6119594;19;20259;-76
2023/03/27 06:15:14;;;;;;;9.05;3.58;;;;;;;2.08;88.73;102260.81;6120504;19;20269;-76
2023/03/27 06:17:21;;;;;;;7.30;3.60;;;;;;;2.07;89.79;102269.47;6117711;19;20028;-76
2023/03/27 06:19:31;;;;;;;10.27;3.13;;;;;;;2.09;89.96;102263.44;6111282;19;20011;-76
2023/03/27 06:21:36;;;;;;;13.05;4.40;;;;;;;2.05;88.10;102272.00;6106037;19;20014;-76
2023/03/27 06:23:44;;;;;;;9.73;3.40;;;;;;;2.15;86.80;102270.47;6105675;19;20018;-76
2023/03/27 06:25:50;;;;;;;14.75;3.65;;;;;;;2.25;87.06;102274.09;6101025;19;20018;-75
2023/03/27 06:27:55;;;;;;;6.57;2.92;;;;;;;2.32;85.96;102278.53;6102584;19;20031;-76
2023/03/27 06:30:00;;;;;;;8.43;3.85;;;;;;;2.34;85.68;102284.63;6100287;19;20654;-76
2023/03/27 06:32:05;;;;;;;9.05;2.85;;;;;;;2.41;86.02;102284.75;6098071;19;20513;-76
2023/03/27 06:34:13;;;;;;;8.50;3.10;;;;;;;2.49;84.97;102295.25;6075393;19;20025;-76
2023/03/27 06:36:21;;;;;;;14.57;3.45;;;;;;;2.58;84.44;102289.31;6078459;19;20015;-75
2023/03/27 06:38:28;;;;;;;7.80;2.55;;;;;;;2.74;82.81;102293.94;6073423;19;20007;-76
2023/03/27 06:40:34;;;;;;;9.55;2.80;;;;;;;2.84;82.79;102292.31;6098330;19;20021;-75
2023/03/27 06:42:39;;;;;;;17.88;3.35;;;;;;;2.85;82.82;102294.94;6077555;19;20159;-76
2023/03/27 06:44:46;;;;;;;12.43;2.83;;;;;;;2.93;80.77;102292.47;6095267;19;20043;-75
2023/03/27 06:46:51;;;;;;;8.80;2.33;;;;;;;3.06;79.78;102291.78;6096015;19;20003;-75
2023/03/27 06:48:56;;;;;;;10.27;3.83;;;;;;;3.18;80.23;102290.19;6097794;19;20621;-75
2023/03/27 06:51:01;;;;;;;12.02;2.83;;;;;;;3.32;79.42;102296.47;6096699;19;20047;-75
2023/03/27 06:53:15;;;;;;;9.55;2.70;;;;;;;3.53;78.24;102290.66;6095795;19;20086;-76
2023/03/27 06:55:33;;;;;;;4.60;1.75;;;;;;;3.59;78.97;102289.84;6092766;19;20668;-74
2023/03/27 06:57:44;;;;;;;6.53;2.83;;;;;;;3.59;78.93;102293.31;6097497;19;20018;-74
2023/03/27 06:59:48;;;;;;;15.00;2.83;;;;;;;3.59;79.04;102301.13;6077138;19;20405;-74
2023/03/27 07:01:53;;;;;;;10.80;2.47;;;;;;;3.62;79.04;102302.88;6093872;19;20094;-74
2023/03/27 07:03:58;;;;;;;6.85;2.25;;;;;;;3.75;77.24;102309.97;6098409;19;20104;-74
2023/03/27 07:06:03;;;;;;;10.55;2.25;;;;;;;3.76;76.83;102316.03;6101888;19;20014;-74
2023/03/27 07:08:13;;;;;;;4.55;2.00;;;;;;;3.80;76.86;102320.44;6095550;19;20219;-74
2023/03/27 07:10:28;;;;;;;3.70;1.70;;;;;;;3.93;76.97;102325.78;6097472;19;20106;-73
2023/03/27 07:12:33;;;;;;;8.43;2.28;;;;;;;4.03;76.88;102318.06;6095811;19;20014;-75
2023/03/27 07:14:37;;;;;;;2.90;1.60;;;;;;;3.99;76.25;102331.91;6096963;19;20006;-75
2023/03/27 07:16:42;;;;;;;11.20;2.78;;;;;;;3.95;76.24;102325.81;6097247;19;20007;-74
2023/03/27 07:18:48;;;;;;;5.97;1.90;;;;;;;3.91;77.25;102335.28;6099549;19;20014;-74
2023/03/27 07:20:53;;;;;;;6.18;1.73;;;;;;;3.88;77.25;102339.59;6096329;19;20015;-72
2023/03/27 07:22:59;;;;;;;3.78;1.58;;;;;;;3.82;76.37;102344.69;6095269;19;20029;-75
2023/03/27 07:25:08;;;;;;;4.25;1.88;;;;;;;3.70;75.97;102342.84;6097226;19;20022;-75
2023/03/27 07:27:13;;;;;;;4.53;1.42;;;;;;;3.64;76.21;102351.44;6074713;19;20006;-73
2023/03/27 07:29:18;;;;;;;9.82;1.95;;;;;;;3.70;75.81;102354.09;6096819;19;20718;-73
2023/03/27 07:31:23;;;;;;;4.35;1.48;;;;;;;4.19;74.50;102346.00;6091636;19;20019;-73
2023/03/27 07:33:48;;;;;;;4.18;1.50;;;;;;;4.35;72.59;102347.00;6093595;19;20630;-73
2023/03/27 07:35:53;;;;;;;6.72;1.73;;;;;;;4.60;73.02;102350.69;6095631;19;20022;-74
2023/03/27 07:37:59;;;;;;;7.60;1.88;;;;;;;4.40;73.12;102354.00;6086812;19;20014;-74
2023/03/27 07:40:12;;;;;;;5.03;1.77;;;;;;;4.96;73.47;102364.88;6093556;19;20506;-74
2023/03/27 07:42:17;;;;;;;5.43;1.60;;;;;;;4.66;74.25;102347.25;6068859;19;20010;-74
2023/03/27 07:44:21;;;;;;;3.45;1.60;;;;;;;4.53;74.93;102362.81;6095876;19;20007;-74
2023/03/27 07:46:26;;;;;;;5.55;1.70;;;;;;;4.43;73.77;102368.78;6095141;19;20011;-75
2023/03/27 07:48:32;;;;;;;7.28;2.22;;;;;;;4.55;73.22;102368.88;6076362;19;20018;-74
2023/03/27 07:50:37;;;;;;;6.85;2.08;;;;;;;4.47;72.85;102367.06;6093933;19;20026;-75
2023/03/27 07:52:43;;;;;;;7.68;1.75;;;;;;;4.51;74.54;102376.66;6096021;19;20007;-76
2023/03/27 07:54:48;;;;;;;12.32;2.13;;;;;;;4.40;73.80;102372.22;6093206;19;20010;-75
2023/03/27 07:56:55;;;;;;;5.88;1.77;;;;;;;4.28;73.75;102381.63;6092824;19;20005;-76
2023/03/27 07:59:00;;;;;;;6.47;1.85;;;;;;;4.21;73.93;102375.47;6094891;19;20011;-76
2023/03/27 08:01:06;;;;;;;10.55;1.98;;;;;;;4.77;73.42;102382.09;6074185;19;20021;-76
2023/03/27 08:03:16;;;;;;;8.10;2.15;;;;;;;5.20;71.78;102383.28;6093999;19;20047;-76
2023/03/27 08:05:21;;;;;;;12.77;2.67;;;;;;;5.32;68.96;102386.81;6095094;19;20039;-76
2023/03/27 08:07:26;;;;;;;11.32;2.15;;;;;;;5.43;68.08;102385.16;6093404;19;20010;-77
2023/03/27 08:09:31;;;;;;;6.53;1.85;;;;;;;5.58;66.58;102393.06;6094051;19;20094;-76
2023/03/27 08:11:36;;;;;;;9.50;1.73;;;;;;;5.67;64.52;102395.72;6078367;19;20047;-77
2023/03/27 08:13:45;;;;;;;6.25;1.50;;;;;;;5.94;64.48;102391.50;6096457;19;20043;-77
2023/03/27 08:15:50;;;;;;;5.97;1.98;;;;;;;6.18;64.46;102393.31;6055198;19;20665;-76
2023/03/27 08:17:55;;;;;;;7.65;1.88;;;;;;;6.18;63.99;102395.06;6093172;19;20708;-76
2023/03/27 08:20:08;;;;;;;7.60;1.73;;;;;;;6.32;64.71;102406.44;6094703;19;20039;-76
2023/03/27 08:22:13;;;;;;;7.20;1.58;;;;;;;6.75;65.01;102401.25;6073769;19;20027;-76
2023/03/27 08:24:18;;;;;;;4.85;1.58;;;;;;;6.76;63.98;102405.59;6098652;19;20027;-75
2023/03/27 08:26:23;;;;;;;6.25;1.70;;;;;;;6.37;65.53;102405.56;6100707;19;20010;-77
2023/03/27 08:28:28;;;;;;;9.48;1.83;;;;;;;6.18;65.88;102413.34;6100706;19;20006;-77
2023/03/27 08:30:36;;;;;;;4.10;1.50;;;;;;;6.68;64.88;102415.16;6101530;19;20040;-77
2023/03/27 08:32:41;;;;;;;10.20;2.10;;;;;;;6.45;64.04;102410.81;6101134;19;20013;-76
2023/03/27 08:34:46;;;;;;;11.18;1.88;;;;;;;6.76;64.89;102408.22;6101529;19;20110;-78
2023/03/27 08:36:51;;;;;;;8.45;1.75;;;;;;;6.15;65.67;102409.84;6100447;19;20002;-76
2023/03/27 08:38:56;;;;;;;8.38;1.75;;;;;;;5.73;65.50;102411.38;6100335;19;20007;-77
2023/03/27 08:41:03;;;;;;;5.28;1.80;;;;;;;5.66;65.68;102413.94;6098344;19;20022;-77
2023/03/27 08:43:17;;;;;;;7.85;1.35;;;;;;;5.35;62.50;102420.75;6100294;19;20003;-77
2023/03/27 08:45:27;;;;;;;6.90;1.83;;;;;;;5.22;63.48;102420.66;6098554;19;20014;-76
2023/03/27 08:47:39;;;;;;;8.00;2.08;;;;;;;5.83;61.71;102417.53;6101371;19;20281;-76
2023/03/27 08:49:52;;;;;;;11.82;1.98;;;;;;;6.09;60.93;102416.78;6097658;19;20014;-76
2023/03/27 08:52:01;;;;;;;6.20;1.58;;;;;;;6.45;60.36;102418.63;6101293;19;20026;-76
2023/03/27 08:54:10;;;;;;;4.60;1.42;;;;;;;6.44;59.15;102427.31;6102521;19;20011;-76
2023/03/27 08:56:16;;;;;;;2.25;1.50;;;;;;;6.50;58.93;102419.53;6102771;19;20025;-76
2023/03/27 08:58:23;;;;;;;6.43;1.85;;;;;;;6.38;58.59;102427.31;6102058;19;20002;-77
2023/03/27 09:00:35;;;;;;;6.15;1.38;;;;;;;6.33;59.68;102445.56;6106215;19;20082;-76
2023/03/27 09:02:52;;;;;;;8.10;1.85;;;;;;;6.36;58.76;102442.09;6107058;19;20006;-76
2023/03/27 09:05:02;;;;;;;6.88;1.52;;;;;;;6.80;59.60;102436.09;6114185;19;20007;-76
2023/03/27 09:07:11;;;;;;;5.50;1.70;;;;;;;6.94;60.50;102447.41;6092278;19;20090;-76
2023/03/27 09:09:33;;;;;;;8.48;1.83;;;;;;;6.88;62.33;102464.84;6111170;19;20002;-77
2023/03/27 09:11:51;;;;;;;7.25;2.17;;;;;;;6.44;63.82;102463.00;6107816;19;20007;-77
2023/03/27 09:13:56;;;;;;;7.75;2.13;;;;;;;6.31;63.18;102464.72;6116854;19;20089;-77
2023/03/27 09:16:04;;;;;;;8.80;1.90;;;;;;;6.73;61.51;102469.16;6120393;19;20010;-78
2023/03/27 09:18:20;;;;;;;10.27;2.38;;;;;;;6.98;61.66;102471.81;6117586;19;20027;-77
2023/03/27 09:20:30;;;;;;;6.07;1.75;;;;;;;7.53;59.56;102483.97;6120454;19;20336;-77
2023/03/27 09:22:43;;;;;;;13.73;2.97;;;;;;;7.20;63.18;102488.38;6114214;19;20007;-78
2023/03/27 09:24:53;;;;;;;3.78;1.40;;;;;;;6.49;67.41;102498.72;6111453;19;20035;-77
2023/03/27 09:26:58;;;;;;;4.63;1.85;;;;;;;5.98;69.20;102508.09;6107225;19;20014;-77
2023/03/27 09:29:15;;;;;;;;;;;;;;;5.87;68.75;102502.78;6106171;19;20011;-77
2023/03/27 09:31:28;;;;;;;5.33;1.80;;;;;;;6.10;68.26;102502.91;6100675;19;20376;-77
2023/03/27 09:33:40;;;;;;;5.50;1.65;;;;;;;6.33;66.82;102496.94;6104515;19;20300;-77
2023/03/27 09:35:45;;;;;;;5.35;1.83;;;;;;;6.85;66.90;102502.31;6102149;19;20019;-77
2023/03/27 09:37:57;;;;;;;5.28;1.90;;;;;;;6.97;64.38;102497.06;6101946;19;20682;-77
2023/03/27 09:40:03;;;;;;;4.20;1.40;;;;;;;7.10;64.21;102491.88;6100414;19;20010;-77
2023/03/27 09:42:15;;;;;;;7.53;2.28;;;;;;;6.80;64.24;102504.91;6099885;19;20010;-77
2023/03/27 09:44:26;;;;;;;4.50;1.75;;;;;;;7.11;63.33;102491.88;6102688;19;20256;-77
2023/03/27 09:46:31;;;;;;;6.68;2.42;;;;;;;6.92;63.11;102492.72;6101224;19;20122;-78
2023/03/27 09:48:49;;;;;;;15.60;3.47;;;;;;;7.33;62.81;102494.47;6103440;19;20039;-79
2023/03/27 09:50:54;;;;;;;7.38;2.60;;;;;;;7.35;61.58;102493.63;6100476;19;20048;-78
2023/03/27 09:53:10;;;;;;;13.23;3.08;;;;;;;7.24;62.79;102497.94;6099873;19;20035;-77
2023/03/27 09:55:29;;;;;;;7.90;1.80;;;;;;;7.34;61.75;102488.38;6098025;19;20032;-75
2023/03/27 09:57:37;;;;;;;8.27;2.00;;;;;;;7.63;62.48;102496.19;6096016;19;20698;-78
2023/03/27 09:59:57;;;;;;;10.70;1.85;;;;;;;7.63;59.97;102504.91;6098426;19;20102;-77
2023/03/27 10:02:18;;;;;;;9.75;2.00;;;;;;;7.55;60.67;102513.63;6100188;19;20414;-77
2023/03/27 10:04:28;;;;;;;6.38;1.98;;;;;;;7.09;63.70;102519.75;6100312;19;20010;-77
2023/03/27 10:06:40;;;;;;;4.97;2.22;;;;;;;6.28;66.62;102533.44;6099654;19;20051;-77
2023/03/27 10:08:50;;;;;;;10.68;2.13;;;;;;;5.55;70.26;102541.66;6099622;19;20041;-77